createdAt,value
2022-08-22T00:02:48.246Z,49.86
2022-08-22T03:11:14.425Z,80.04
2022-08-22T03:14:08.127Z,80.27
2022-08-22T03:16:53.096Z,80.13
2022-08-22T03:19:42.528Z,80.17
2022-08-22T03:22:17.666Z,80.33
2022-08-22T03:25:13.805Z,80.15
2022-08-22T03:28:00.513Z,80.17
2022-08-22T03:30:43.940Z,80.05
2022-08-22T03:33:15.676Z,80.43
2022-08-22T03:35:42.334Z,80.51
2022-08-22T03:38:24.970Z,80.29
2022-08-22T03:41:07.665Z,80.69
2022-08-22T03:43:49.663Z,80.67
2022-08-22T03:46:37.600Z,80.51
2022-08-22T03:49:27.971Z,80.91
2022-08-22T03:52:27.586Z,80.46
2022-08-22T03:55:15.067Z,80.66
2022-08-22T03:57:41.749Z,80.57
2022-08-22T04:00:28.800Z,80.67
2022-08-22T04:03:32.931Z,80.74
2022-08-22T04:06:12.786Z,80.75
2022-08-22T04:09:04.888Z,80.64
2022-08-22T04:12:16.342Z,80.30
2022-08-22T04:15:15.159Z,80.38
2022-08-22T04:17:57.649Z,80.92
2022-08-22T04:21:06.309Z,80.88
2022-08-22T04:23:42.432Z,80.98
2022-08-22T04:26:18.230Z,80.87
2022-08-22T04:29:03.143Z,81.11
2022-08-22T04:31:34.684Z,81.00
2022-08-22T04:34:21.638Z,81.20
2022-08-22T04:37:00.423Z,80.69
2022-08-22T04:39:51.661Z,80.92
2022-08-22T04:42:38.423Z,80.81
2022-08-22T04:45:27.496Z,81.19
2022-08-22T04:48:06.356Z,81.07
2022-08-22T04:50:43.776Z,81.07
2022-08-22T04:53:32.688Z,81.17
2022-08-22T04:56:02.032Z,81.25
2022-08-22T04:58:44.303Z,81.07
2022-08-22T05:01:19.091Z,80.98
2022-08-22T05:03:53.948Z,80.95
2022-08-22T05:06:26.608Z,81.20
2022-08-22T05:08:54.191Z,81.63
2022-08-22T05:11:23.620Z,81.63
2022-08-22T05:14:00.418Z,81.31
2022-08-22T05:16:34.300Z,81.51
2022-08-22T05:19:27.089Z,81.24
2022-08-22T05:21:57.652Z,81.36
2022-08-22T05:24:32.352Z,81.25
2022-08-22T05:27:09.342Z,81.31
2022-08-22T05:29:40.488Z,81.23
2022-08-22T05:32:16.272Z,81.36
2022-08-22T05:34:46.372Z,81.21
2022-08-22T05:37:20.493Z,81.53
2022-08-22T05:39:53.231Z,81.42
2022-08-22T05:42:28.319Z,81.25
2022-08-22T05:44:55.941Z,81.11
2022-08-22T05:47:41.113Z,81.34
2022-08-22T05:50:51.059Z,81.13
2022-08-22T05:53:26.849Z,81.52
2022-08-22T05:55:59.834Z,81.12
2022-08-22T05:58:38.634Z,81.62
2022-08-22T06:01:31.847Z,81.22
2022-08-22T06:04:06.857Z,81.20
2022-08-22T06:06:52.086Z,81.28
2022-08-22T06:09:35.583Z,81.04
2022-08-22T06:12:08.642Z,81.06
2022-08-22T06:15:12.394Z,81.06
2022-08-22T06:17:50.099Z,80.94
2022-08-22T06:20:30.107Z,80.78
2022-08-22T06:23:00.616Z,80.47
2022-08-22T06:25:33.795Z,80.72
2022-08-22T06:28:08.823Z,80.68
2022-08-22T06:30:38.136Z,80.31
2022-08-22T06:33:12.477Z,80.65
2022-08-22T06:36:07.631Z,80.47
2022-08-22T06:39:00.548Z,80.64
2022-08-22T06:41:30.480Z,80.55
2022-08-22T06:43:59.274Z,80.58
2022-08-22T06:46:29.421Z,80.96
2022-08-22T06:49:00.408Z,80.91
2022-08-22T06:51:29.363Z,80.60
2022-08-22T06:54:05.658Z,80.91
2022-08-22T06:56:39.382Z,80.55
2022-08-22T06:59:13.622Z,80.59
2022-08-22T07:01:50.770Z,80.44
2022-08-22T07:04:18.642Z,80.49
2022-08-22T07:06:50.423Z,80.39
2022-08-22T07:09:23.660Z,80.25
2022-08-22T07:11:52.432Z,80.00
2022-08-22T07:14:27.685Z,80.11
2022-08-22T07:17:01.115Z,80.10
2022-08-22T07:19:33.751Z,80.04
2022-08-22T07:22:10.225Z,79.81
2022-08-22T07:24:38.541Z,79.71
2022-08-22T07:27:27.260Z,79.53
2022-08-22T07:30:03.040Z,78.75
2022-08-22T07:32:54.053Z,78.52
2022-08-22T07:35:26.940Z,78.57
2022-08-22T07:38:30.920Z,78.30
2022-08-22T07:41:15.063Z,78.10
2022-08-22T07:43:49.619Z,77.03
2022-08-22T07:46:19.437Z,76.39
2022-08-22T07:49:08.495Z,76.23
2022-08-22T07:51:44.846Z,75.71
2022-08-22T07:54:17.048Z,75.01
2022-08-22T07:56:53.707Z,74.85
2022-08-22T07:59:22.369Z,74.33
2022-08-22T08:01:53.857Z,74.04
2022-08-22T08:04:26.389Z,74.09
2022-08-22T08:06:58.903Z,73.38
2022-08-22T08:09:31.191Z,73.09
2022-08-22T08:11:59.935Z,72.80
2022-08-22T08:14:27.348Z,72.53
2022-08-22T08:17:03.395Z,72.37
2022-08-22T08:19:34.958Z,72.23
2022-08-22T08:22:02.301Z,72.13
2022-08-22T08:24:40.531Z,71.84
2022-08-22T08:27:34.192Z,71.53
2022-08-22T08:30:17.066Z,71.45
2022-08-22T08:32:49.599Z,71.31
2022-08-22T08:35:25.482Z,71.35
2022-08-22T08:37:55.499Z,71.15
2022-08-22T08:40:31.322Z,70.93
2022-08-22T08:43:34.920Z,70.44
2022-08-22T08:46:20.920Z,69.95
2022-08-22T08:48:53.211Z,69.84
2022-08-22T08:51:57.658Z,69.75
2022-08-22T08:54:33.308Z,69.35
2022-08-22T08:57:08.393Z,69.38
2022-08-22T08:59:47.446Z,69.20
2022-08-22T09:02:46.110Z,69.03
2022-08-22T09:05:45.500Z,68.71
2022-08-22T09:08:24.054Z,68.45
2022-08-22T09:11:15.791Z,68.46
2022-08-22T09:14:17.294Z,68.22
2022-08-22T09:16:57.094Z,68.26
2022-08-22T09:20:15.396Z,67.96
2022-08-22T09:23:23.023Z,67.89
2022-08-22T09:26:05.018Z,68.30
2022-08-22T09:28:39.232Z,67.98
2022-08-22T09:34:23.899Z,68.12
2022-08-22T09:37:19.722Z,68.06
2022-08-22T09:40:16.489Z,68.26
2022-08-22T09:40:17.320Z,68.06
2022-08-22T09:42:48.990Z,68.63
2022-08-22T09:45:31.606Z,68.68
2022-08-22T09:48:07.324Z,68.78
2022-08-22T09:51:01.602Z,68.96
2022-08-22T09:53:53.533Z,69.14
2022-08-22T09:56:56.750Z,68.94
2022-08-22T09:59:33.725Z,69.00
2022-08-22T10:02:23.514Z,68.55
2022-08-22T10:05:04.106Z,68.68
2022-08-22T10:08:13.113Z,68.68
2022-08-22T10:10:58.100Z,68.55
2022-08-22T10:13:43.621Z,68.45
2022-08-22T10:16:22.255Z,68.62
2022-08-22T10:18:53.303Z,68.98
2022-08-22T10:21:46.584Z,68.61
2022-08-22T10:24:32.447Z,68.73
2022-08-22T10:27:13.924Z,68.63
2022-08-22T10:30:23.759Z,68.62
2022-08-22T10:33:07.001Z,68.81
2022-08-22T10:35:39.592Z,68.65
2022-08-22T10:38:10.535Z,68.40
2022-08-22T10:41:09.192Z,68.43
2022-08-22T10:43:56.515Z,68.31
2022-08-22T10:46:39.188Z,68.31
2022-08-22T10:49:22.571Z,68.42
2022-08-22T10:52:15.509Z,69.03
2022-08-22T10:54:51.508Z,69.57
2022-08-22T10:57:44.256Z,70.01
2022-08-22T11:00:33.257Z,70.54
2022-08-22T11:03:25.111Z,70.76
2022-08-22T11:05:54.511Z,70.87
2022-08-22T11:09:13.887Z,71.24
2022-08-22T11:11:56.358Z,71.17
2022-08-22T11:15:07.630Z,71.24
2022-08-22T11:18:20.554Z,70.52
2022-08-22T11:21:20.464Z,69.52
2022-08-22T11:23:56.618Z,68.91
2022-08-22T11:26:47.245Z,67.72
2022-08-22T11:29:17.069Z,66.46
2022-08-22T11:32:09.001Z,65.24
2022-08-22T11:34:51.098Z,64.33
2022-08-22T11:37:45.209Z,63.11
2022-08-22T11:40:27.101Z,62.13
2022-08-22T11:43:10.741Z,61.08
2022-08-22T11:45:51.418Z,60.30
2022-08-22T11:48:28.359Z,59.88
2022-08-22T11:51:13.532Z,59.88
2022-08-22T11:53:55.557Z,59.77
2022-08-22T11:56:54.794Z,59.87
2022-08-22T11:59:28.551Z,59.55
2022-08-22T12:02:04.550Z,59.26
2022-08-22T12:04:46.829Z,58.88
2022-08-22T12:07:18.682Z,58.42
2022-08-22T12:09:55.368Z,57.57
2022-08-22T12:12:37.652Z,56.30
2022-08-22T12:15:24.417Z,55.01
2022-08-22T12:18:21.250Z,53.25
2022-08-22T12:21:15.776Z,51.83
2022-08-22T12:23:55.930Z,49.97
2022-08-22T12:26:54.844Z,48.32
2022-08-22T12:29:45.016Z,47.69
2022-08-22T12:32:32.071Z,46.93
2022-08-22T12:35:30.239Z,46.97
2022-08-22T12:38:00.558Z,46.93
2022-08-22T12:40:36.479Z,46.27
2022-08-22T12:43:32.364Z,45.21
2022-08-22T12:46:13.230Z,44.17
2022-08-22T12:49:00.238Z,43.30
2022-08-22T12:51:56.099Z,42.95
2022-08-22T12:54:27.671Z,42.79
2022-08-22T12:57:25.249Z,42.44
2022-08-22T13:00:01.822Z,41.85
2022-08-22T13:02:34.006Z,41.35
2022-08-22T13:05:29.825Z,40.89
2022-08-22T13:08:10.255Z,41.04
2022-08-22T13:10:51.005Z,41.36
2022-08-22T13:13:41.752Z,41.95
2022-08-22T13:16:15.614Z,42.32
2022-08-22T13:19:07.593Z,42.61
2022-08-22T13:21:44.988Z,42.85
2022-08-22T13:24:22.788Z,42.51
2022-08-22T13:27:11.536Z,42.31
2022-08-22T13:30:07.862Z,42.45
2022-08-22T13:32:47.345Z,41.92
2022-08-22T13:35:55.482Z,41.81
2022-08-22T13:38:46.247Z,41.91
2022-08-22T13:41:22.156Z,41.81
2022-08-22T13:44:01.664Z,40.92
2022-08-22T13:46:35.576Z,40.14
2022-08-22T13:49:07.140Z,39.71
2022-08-22T13:51:56.300Z,39.43
2022-08-22T13:54:39.010Z,39.16
2022-08-22T13:57:11.052Z,37.95
2022-08-22T14:00:28.900Z,37.15
2022-08-22T14:03:18.107Z,35.64
2022-08-22T14:06:38.385Z,34.96
2022-08-22T14:09:54.382Z,33.88
2022-08-22T14:12:28.708Z,32.77
2022-08-22T14:15:04.066Z,31.84
2022-08-22T14:17:42.537Z,30.78
2022-08-22T14:20:32.111Z,30.14
2022-08-22T14:23:07.553Z,29.46
2022-08-22T14:25:39.171Z,28.60
2022-08-22T14:28:10.428Z,28.02
2022-08-22T14:31:13.750Z,26.64
2022-08-22T14:34:02.415Z,25.67
2022-08-22T14:36:35.269Z,24.44
2022-08-22T14:39:22.459Z,24.24
2022-08-22T14:42:04.268Z,24.94
2022-08-22T14:44:44.854Z,24.85
2022-08-22T14:47:54.037Z,23.79
2022-08-22T14:50:59.458Z,23.13
2022-08-22T14:53:35.939Z,22.34
2022-08-22T14:56:18.197Z,22.25
2022-08-22T14:59:09.145Z,22.18
2022-08-22T15:02:11.869Z,22.21
2022-08-22T15:04:44.391Z,22.59
2022-08-22T15:07:24.872Z,22.05
2022-08-22T15:10:31.849Z,21.08
2022-08-22T15:13:03.208Z,20.43
2022-08-22T15:15:49.543Z,19.64
2022-08-22T15:18:24.084Z,19.05
2022-08-22T15:21:03.719Z,18.48
2022-08-22T15:23:45.459Z,18.07
2022-08-22T15:26:23.106Z,18.56
2022-08-22T15:28:57.847Z,19.14
2022-08-22T15:31:25.128Z,19.53
2022-08-22T15:33:52.381Z,19.49
2022-08-22T15:36:22.803Z,19.58
2022-08-22T15:38:55.531Z,19.04
2022-08-22T15:41:23.273Z,19.25
2022-08-22T15:43:53.726Z,18.60
2022-08-22T15:46:23.583Z,18.00
2022-08-22T15:49:07.256Z,17.49
2022-08-22T15:51:43.767Z,17.12
2022-08-22T15:54:25.220Z,16.59
2022-08-22T15:56:52.570Z,17.58
2022-08-22T15:59:47.981Z,18.54
2022-08-22T16:02:35.498Z,20.32
2022-08-22T16:05:11.776Z,22.13
2022-08-22T16:07:40.698Z,23.81
2022-08-22T16:10:10.177Z,25.20
2022-08-22T16:12:43.476Z,26.52
2022-08-22T16:15:50.325Z,27.69
2022-08-22T16:18:33.551Z,28.90
2022-08-22T16:21:09.035Z,29.75
2022-08-22T16:23:54.268Z,30.46
2022-08-22T16:26:23.298Z,31.15
2022-08-22T16:29:28.140Z,31.77
2022-08-22T16:31:57.657Z,32.29
2022-08-22T16:34:39.391Z,32.71
2022-08-22T16:37:08.836Z,33.23
2022-08-22T16:39:37.975Z,33.85
2022-08-22T16:42:14.654Z,34.33
2022-08-22T16:44:47.422Z,34.60
2022-08-22T16:47:21.941Z,35.16
2022-08-22T16:49:51.448Z,35.27
2022-08-22T16:52:24.117Z,35.72
2022-08-22T16:54:55.573Z,36.11
2022-08-22T16:57:29.801Z,36.47
2022-08-22T17:00:02.000Z,36.71
2022-08-22T17:02:52.346Z,37.41
2022-08-22T17:05:32.537Z,37.52
2022-08-22T17:08:16.610Z,37.93
2022-08-22T17:10:52.185Z,38.44
2022-08-22T17:13:43.295Z,38.83
2022-08-22T17:16:53.403Z,39.18
2022-08-22T17:19:42.135Z,39.40
2022-08-22T17:22:36.401Z,39.67
2022-08-22T17:25:31.875Z,40.02
2022-08-22T17:28:09.029Z,40.15
2022-08-22T17:30:54.423Z,40.35
2022-08-22T17:33:34.144Z,40.58
2022-08-22T17:36:26.693Z,40.86
2022-08-22T17:39:12.796Z,41.27
2022-08-22T17:41:57.636Z,41.43
2022-08-22T17:44:24.339Z,41.55
2022-08-22T17:46:54.585Z,41.64
2022-08-22T17:49:42.691Z,42.03
2022-08-22T17:52:20.055Z,42.16
2022-08-22T17:54:55.461Z,42.44
2022-08-22T17:57:33.575Z,42.69
2022-08-22T18:00:12.028Z,42.63
2022-08-22T18:03:00.662Z,42.92
2022-08-22T18:05:32.703Z,43.08
2022-08-22T18:08:38.057Z,43.17
2022-08-22T18:11:11.382Z,43.66
2022-08-22T18:13:49.746Z,43.66
2022-08-22T18:16:16.819Z,43.78
2022-08-22T18:18:49.295Z,43.74
2022-08-22T18:22:34.509Z,44.00
2022-08-22T18:29:53.466Z,44.74
2022-08-22T18:33:09.383Z,45.02
2022-08-22T18:36:21.174Z,45.64
2022-08-22T18:43:15.636Z,46.28
2022-08-22T18:46:08.360Z,46.57
2022-08-22T18:49:41.033Z,47.31
2022-08-22T18:52:55.995Z,47.55
2022-08-22T18:56:19.707Z,47.70
2022-08-22T18:59:25.090Z,47.86
2022-08-22T19:02:38.117Z,48.14
2022-08-22T19:05:36.807Z,48.54
2022-08-22T19:09:18.270Z,48.81
2022-08-22T19:13:01.441Z,49.14
2022-08-22T19:16:35.780Z,49.43
2022-08-22T19:19:49.818Z,49.45
2022-08-22T19:22:39.454Z,49.59
2022-08-22T19:26:06.248Z,50.13
2022-08-22T19:29:18.258Z,50.58
2022-08-22T19:32:44.848Z,50.84
2022-08-22T19:40:00.751Z,51.43
2022-08-22T20:25:44.721Z,53.04
2022-08-22T20:28:29.856Z,53.36
2022-08-22T20:31:04.684Z,53.29
2022-08-22T20:33:35.682Z,53.63
2022-08-22T20:36:07.332Z,53.65
2022-08-22T20:38:58.745Z,53.66
2022-08-22T20:41:37.287Z,53.81
2022-08-22T20:44:15.985Z,53.83
2022-08-22T20:46:55.055Z,53.91
2022-08-22T20:49:30.064Z,54.26
2022-08-22T20:52:04.299Z,54.58
2022-08-22T20:54:34.449Z,54.77
2022-08-22T20:57:11.420Z,54.82
2022-08-22T20:59:41.881Z,55.09
2022-08-22T21:02:11.314Z,55.46
2022-08-22T21:05:04.459Z,55.45
2022-08-22T21:07:38.257Z,55.79
2022-08-22T21:10:34.977Z,55.70
2022-08-22T21:13:20.640Z,56.03
2022-08-22T21:16:00.077Z,55.86
2022-08-22T21:18:34.447Z,56.10
2022-08-22T21:21:18.168Z,56.29
2022-08-22T21:23:55.441Z,56.23
2022-08-22T21:26:36.783Z,56.60
2022-08-22T21:29:06.237Z,56.47
2022-08-22T21:31:41.336Z,56.52
2022-08-22T21:34:14.691Z,56.57
2022-08-22T21:36:41.829Z,56.93
2022-08-22T21:39:23.108Z,56.90
2022-08-22T21:42:08.900Z,57.28
2022-08-22T21:44:38.598Z,57.59
2022-08-22T21:47:30.902Z,57.50
2022-08-22T21:49:59.062Z,57.72
2022-08-22T21:52:27.620Z,58.01
2022-08-22T21:54:54.372Z,58.15
2022-08-22T21:57:34.805Z,58.38
2022-08-22T22:00:02.183Z,58.61
2022-08-22T22:02:38.121Z,58.65
2022-08-22T22:05:15.975Z,58.91
2022-08-22T22:07:46.311Z,58.78
2022-08-22T22:10:16.838Z,59.10
2022-08-22T22:12:46.830Z,59.32
2022-08-22T22:15:17.805Z,59.38
2022-08-22T22:17:44.809Z,59.38
2022-08-22T22:20:12.658Z,59.21
2022-08-22T22:22:43.181Z,59.43
2022-08-22T22:25:40.946Z,59.76
2022-08-22T22:28:05.842Z,60.11
2022-08-22T22:30:32.987Z,59.84
2022-08-22T22:32:59.783Z,59.70
2022-08-22T22:35:27.022Z,59.58
2022-08-22T22:37:56.626Z,59.75
2022-08-22T22:40:24.229Z,59.68
2022-08-22T22:42:51.230Z,59.55
2022-08-22T22:45:18.084Z,59.41
2022-08-22T22:48:44.566Z,59.58
2022-08-22T22:52:11.590Z,59.66
2022-08-22T22:59:24.771Z,60.29
2022-08-22T23:03:00.720Z,60.10
2022-08-22T23:10:21.964Z,60.56
2022-08-22T23:13:48.738Z,60.58
2022-08-22T23:17:15.462Z,61.22
2022-08-22T23:20:41.945Z,61.29
2022-08-22T23:28:01.049Z,61.34
2022-08-22T23:31:27.706Z,61.70
2022-08-22T23:38:46.096Z,62.43
2022-08-22T23:42:12.554Z,62.56
2022-08-22T23:49:31.287Z,63.23
2022-08-22T23:52:59.599Z,63.12
2022-08-22T23:56:26.404Z,63.80
2022-08-22T23:59:57.609Z,64.07
